createdAt,value
2018-07-02T00:00:02.665Z,35.19
2018-07-02T00:02:37.045Z,35.16
2018-07-02T00:05:11.806Z,35.39
2018-07-02T00:07:46.386Z,35.28
2018-07-02T00:10:20.906Z,35.01
2018-07-02T00:12:55.428Z,35.54
2018-07-02T00:15:30.010Z,35.63
2018-07-02T00:18:04.503Z,35.88
2018-07-02T00:20:39.020Z,35.84
2018-07-02T00:23:13.659Z,35.60
2018-07-02T00:25:48.236Z,35.77
2018-07-02T00:28:22.842Z,36.10
2018-07-02T00:30:57.378Z,35.90
2018-07-02T00:33:32.099Z,35.49
2018-07-02T00:36:06.668Z,35.91
2018-07-02T00:38:41.060Z,35.86
2018-07-02T00:41:15.724Z,35.81
2018-07-02T00:43:50.410Z,35.65
2018-07-02T00:46:25.032Z,35.96
2018-07-02T00:48:59.690Z,36.12
2018-07-02T00:51:34.364Z,36.75
2018-07-02T00:54:08.931Z,36.69
2018-07-02T00:56:43.575Z,36.12
2018-07-02T00:59:18.198Z,36.50
2018-07-02T01:01:52.762Z,36.57
2018-07-02T01:04:27.404Z,36.54
2018-07-02T01:07:01.959Z,35.96
2018-07-02T01:09:36.557Z,36.25
2018-07-02T01:12:10.980Z,36.07
2018-07-02T01:14:45.491Z,36.53
2018-07-02T01:17:20.033Z,36.48
2018-07-02T01:19:54.601Z,36.53
2018-07-02T01:22:29.134Z,36.62
2018-07-02T01:25:03.543Z,36.61
2018-07-02T01:27:38.099Z,36.73
2018-07-02T01:30:12.547Z,36.34
2018-07-02T01:32:47.138Z,37.14
2018-07-02T01:35:21.815Z,37.10
2018-07-02T01:37:56.505Z,36.78
2018-07-02T01:40:31.163Z,37.04
2018-07-02T01:43:05.786Z,37.40
2018-07-02T01:45:40.364Z,37.75
2018-07-02T01:48:14.960Z,37.56
2018-07-02T01:50:49.557Z,37.61
2018-07-02T01:53:23.900Z,37.70
2018-07-02T01:55:58.305Z,37.67
2018-07-02T01:58:32.604Z,37.71
2018-07-02T02:01:06.950Z,37.92
2018-07-02T02:03:41.355Z,38.65
2018-07-02T02:06:15.814Z,38.16
2018-07-02T02:08:50.223Z,38.41
2018-07-02T02:11:24.851Z,38.34
2018-07-02T02:13:59.391Z,38.75
2018-07-02T02:16:33.972Z,38.12
2018-07-02T02:19:08.629Z,38.70
2018-07-02T02:21:43.119Z,38.45
2018-07-02T02:24:17.684Z,38.37
2018-07-02T02:26:52.200Z,38.85
2018-07-02T02:29:26.650Z,38.40
2018-07-02T02:32:01.218Z,38.78
2018-07-02T02:34:35.886Z,38.63
2018-07-02T02:37:10.370Z,39.52
2018-07-02T02:39:58.904Z,39.70
2018-07-02T02:42:47.055Z,39.16
2018-07-02T02:45:21.381Z,39.00
2018-07-02T02:47:55.826Z,39.00
2018-07-02T02:50:30.372Z,39.18
2018-07-02T02:53:04.957Z,38.96
2018-07-02T02:55:39.464Z,39.26
2018-07-02T02:58:13.942Z,38.76
2018-07-02T03:00:48.548Z,38.78
2018-07-02T03:03:23.113Z,38.91
2018-07-02T03:05:57.492Z,39.17
2018-07-02T03:08:31.931Z,39.40
2018-07-02T03:11:06.537Z,38.76
2018-07-02T03:13:41.060Z,39.01
2018-07-02T03:16:15.614Z,38.77
2018-07-02T03:18:50.180Z,39.06
2018-07-02T03:21:24.747Z,39.24
2018-07-02T03:23:59.264Z,39.63
2018-07-02T03:26:55.790Z,39.56
2018-07-02T03:29:30.289Z,39.57
2018-07-02T03:32:04.941Z,39.79
2018-07-02T03:34:39.382Z,39.89
2018-07-02T03:37:13.792Z,39.77
2018-07-02T03:39:48.504Z,40.71
2018-07-02T03:42:23.146Z,39.80
2018-07-02T03:44:57.761Z,39.71
2018-07-02T03:47:32.342Z,39.50
2018-07-02T03:50:06.829Z,40.79
2018-07-02T03:52:41.606Z,39.92
2018-07-02T03:55:16.142Z,39.68
2018-07-02T03:57:50.750Z,39.78
2018-07-02T04:00:25.595Z,39.55
2018-07-02T04:02:59.921Z,39.51
2018-07-02T04:05:34.240Z,39.79
2018-07-02T04:08:08.641Z,39.74
2018-07-02T04:10:43.323Z,39.45
2018-07-02T04:13:17.812Z,39.71
2018-07-02T04:15:52.405Z,39.56
2018-07-02T04:18:26.869Z,39.61
2018-07-02T04:21:01.405Z,40.66
2018-07-02T04:23:35.894Z,40.43
2018-07-02T04:26:10.412Z,40.48
2018-07-02T04:28:44.840Z,40.31
2018-07-02T04:31:19.324Z,40.26
2018-07-02T04:33:53.788Z,40.48
2018-07-02T04:36:28.692Z,40.42
2018-07-02T04:39:03.886Z,39.98
2018-07-02T04:41:38.999Z,39.72
2018-07-02T04:44:13.454Z,40.03
2018-07-02T04:46:47.918Z,39.43
2018-07-02T04:49:22.616Z,39.52
2018-07-02T04:51:57.169Z,39.58
2018-07-02T04:54:31.803Z,39.45
2018-07-02T04:57:06.450Z,39.01
2018-07-02T04:59:41.139Z,39.05
2018-07-02T05:02:15.532Z,38.63
2018-07-02T05:04:50.244Z,39.19
2018-07-02T05:07:24.932Z,38.81
2018-07-02T05:09:59.399Z,38.61
2018-07-02T05:12:34.010Z,39.28
2018-07-02T05:15:08.593Z,38.07
2018-07-02T05:17:42.969Z,38.99
2018-07-02T05:20:17.404Z,39.68
2018-07-02T05:22:52.372Z,39.03
2018-07-02T05:25:26.597Z,39.53
2018-07-02T05:28:00.964Z,38.46
2018-07-02T05:30:35.759Z,38.72
2018-07-02T05:33:10.853Z,38.76
2018-07-02T05:35:45.356Z,39.81
2018-07-02T05:38:19.950Z,38.35
2018-07-02T05:40:54.812Z,38.80
2018-07-02T05:43:29.348Z,37.74
2018-07-02T05:46:03.993Z,37.96
2018-07-02T05:48:38.595Z,37.28
2018-07-02T05:51:12.868Z,37.53
2018-07-02T05:53:47.382Z,37.82
2018-07-02T05:56:22.060Z,37.43
2018-07-02T05:58:56.484Z,37.65
2018-07-02T06:01:31.051Z,38.56
2018-07-02T06:04:05.378Z,37.06
2018-07-02T06:06:39.909Z,36.76
2018-07-02T06:09:14.453Z,36.66
2018-07-02T06:11:49.012Z,36.73
2018-07-02T06:14:23.462Z,38.09
2018-07-02T06:16:57.954Z,36.57
2018-07-02T06:19:32.500Z,36.97
2018-07-02T06:22:06.953Z,35.78
2018-07-02T06:24:41.623Z,35.89
2018-07-02T06:27:16.028Z,34.17
2018-07-02T06:29:50.651Z,35.11
2018-07-02T06:32:25.286Z,36.29
2018-07-02T06:34:59.768Z,33.30
2018-07-02T06:37:34.237Z,33.83
2018-07-02T06:40:08.660Z,33.50
2018-07-02T06:42:43.149Z,31.94
2018-07-02T06:45:17.852Z,26.74
2018-07-02T06:47:52.457Z,22.98
2018-07-02T06:50:27.042Z,20.36
2018-07-02T06:53:01.490Z,19.94
2018-07-02T06:55:35.919Z,17.29
2018-07-02T06:58:10.361Z,18.11
2018-07-02T07:00:44.848Z,16.95
2018-07-02T07:03:19.220Z,16.48
2018-07-02T07:05:53.776Z,17.19
2018-07-02T07:08:28.388Z,17.15
2018-07-02T07:11:02.759Z,15.81
2018-07-02T07:13:37.241Z,15.06
2018-07-02T07:16:11.627Z,15.67
2018-07-02T07:18:45.876Z,15.56
2018-07-02T07:21:20.060Z,15.50
2018-07-02T07:23:54.504Z,14.60
2018-07-02T07:26:28.954Z,14.04
2018-07-02T07:29:03.360Z,15.55
2018-07-02T07:31:37.540Z,14.49
2018-07-02T07:34:11.876Z,15.80
2018-07-02T07:36:46.207Z,14.81
2018-07-02T07:39:20.429Z,13.82
2018-07-02T07:41:54.664Z,13.60
2018-07-02T07:44:29.065Z,14.77
2018-07-02T07:47:03.423Z,14.42
2018-07-02T07:49:37.761Z,13.23
2018-07-02T07:52:12.331Z,12.86
2018-07-02T07:54:46.783Z,13.18
2018-07-02T07:57:21.169Z,13.42
2018-07-02T07:59:55.440Z,12.00
2018-07-02T08:02:29.864Z,12.64
2018-07-02T08:05:04.772Z,12.88
2018-07-02T08:07:39.204Z,12.76
2018-07-02T08:10:13.607Z,12.66
2018-07-02T08:12:47.980Z,12.99
2018-07-02T08:15:22.365Z,13.89
2018-07-02T08:17:56.724Z,14.03
2018-07-02T08:20:30.954Z,14.40
2018-07-02T08:23:05.181Z,13.08
2018-07-02T08:25:39.639Z,14.02
2018-07-02T08:28:14.083Z,12.14
2018-07-02T08:30:48.618Z,12.37
2018-07-02T08:33:23.196Z,12.29
2018-07-02T08:35:57.632Z,13.55
2018-07-02T08:38:32.022Z,12.73
2018-07-02T08:41:06.428Z,13.57
2018-07-02T08:43:40.744Z,12.55
2018-07-02T08:46:15.111Z,10.48
2018-07-02T08:48:49.531Z,11.57
2018-07-02T08:51:23.887Z,11.67
2018-07-02T08:53:58.288Z,11.11
2018-07-02T08:56:32.695Z,11.20
2018-07-02T08:59:07.043Z,10.74
2018-07-02T09:01:41.497Z,10.85
2018-07-02T09:04:15.825Z,11.45
2018-07-02T09:06:50.205Z,12.96
2018-07-02T09:09:24.579Z,11.95
2018-07-02T09:11:58.813Z,12.06
2018-07-02T09:14:33.089Z,12.59
2018-07-02T09:17:07.459Z,10.68
2018-07-02T09:19:41.707Z,11.95
2018-07-02T09:22:15.920Z,11.58
2018-07-02T09:24:50.153Z,10.53
2018-07-02T09:27:24.564Z,12.04
2018-07-02T09:29:58.874Z,11.15
2018-07-02T09:32:33.260Z,11.75
2018-07-02T09:35:07.714Z,12.06
2018-07-02T09:37:42.132Z,10.61
2018-07-02T09:40:16.571Z,11.19
2018-07-02T09:42:50.872Z,11.81
2018-07-02T09:45:25.213Z,13.16
2018-07-02T09:47:59.545Z,12.12
2018-07-02T09:50:33.858Z,13.40
2018-07-02T09:53:08.388Z,10.58
2018-07-02T09:55:43.031Z,10.95
2018-07-02T09:58:17.513Z,10.98
2018-07-02T10:00:51.831Z,10.96
2018-07-02T10:03:26.259Z,11.48
2018-07-02T10:06:00.687Z,11.12
2018-07-02T10:08:35.060Z,11.11
2018-07-02T10:11:09.395Z,11.64
2018-07-02T10:13:43.725Z,12.46
2018-07-02T10:16:18.143Z,11.91
2018-07-02T10:18:52.543Z,11.48
2018-07-02T10:21:26.828Z,11.66
2018-07-02T10:24:01.248Z,11.84
2018-07-02T10:26:35.709Z,12.05
2018-07-02T10:29:10.212Z,12.67
2018-07-02T10:31:44.649Z,12.57
2018-07-02T10:34:19.103Z,10.51
2018-07-02T10:36:53.348Z,10.92
2018-07-02T10:39:27.664Z,9.67
2018-07-02T10:42:02.046Z,11.87
2018-07-02T10:44:36.492Z,10.51
2018-07-02T10:47:10.887Z,11.99
2018-07-02T10:49:45.127Z,10.64
2018-07-02T10:52:19.511Z,12.29
2018-07-02T10:54:53.944Z,11.53
2018-07-02T10:57:28.340Z,14.10
2018-07-02T11:00:02.801Z,12.27
2018-07-02T11:02:37.339Z,12.08
2018-07-02T11:05:11.748Z,11.89
2018-07-02T11:07:46.132Z,10.70
2018-07-02T11:10:20.585Z,11.17
2018-07-02T11:12:54.828Z,10.51
2018-07-02T11:15:29.211Z,10.25
2018-07-02T11:18:07.561Z,11.04
2018-07-02T11:20:42.298Z,10.61
2018-07-02T11:23:16.574Z,11.69
2018-07-02T11:25:50.963Z,12.07
2018-07-02T11:28:25.380Z,14.35
2018-07-02T11:30:59.784Z,11.22
2018-07-02T11:33:34.172Z,12.06
2018-07-02T11:36:08.398Z,12.18
2018-07-02T11:38:42.614Z,12.68
2018-07-02T11:41:16.976Z,12.71
2018-07-02T11:43:51.351Z,11.87
2018-07-02T11:46:25.699Z,10.63
2018-07-02T11:49:00.121Z,12.00
2018-07-02T11:51:34.586Z,11.31
2018-07-02T11:54:08.970Z,13.80
2018-07-02T11:56:43.192Z,14.18
2018-07-02T11:59:17.620Z,15.24
2018-07-02T12:01:51.900Z,15.61
2018-07-02T12:04:26.283Z,17.00
2018-07-02T12:07:00.641Z,18.55
2018-07-02T12:09:34.975Z,18.21
2018-07-02T12:12:09.332Z,18.62
2018-07-02T12:14:43.643Z,19.61
2018-07-02T12:17:18.048Z,20.10
2018-07-02T12:19:52.315Z,21.97
2018-07-02T12:22:26.876Z,22.26
2018-07-02T12:25:01.100Z,21.27
2018-07-02T12:27:35.440Z,21.03
2018-07-02T12:30:09.785Z,21.13
2018-07-02T12:32:44.023Z,21.95
2018-07-02T12:35:18.205Z,21.86
2018-07-02T12:37:52.674Z,22.08
2018-07-02T12:40:27.095Z,22.27
2018-07-02T12:43:01.500Z,21.38
2018-07-02T12:45:35.901Z,21.74
2018-07-02T12:48:10.223Z,21.91
2018-07-02T12:50:44.435Z,22.91
2018-07-02T12:53:18.651Z,23.62
2018-07-02T12:55:52.887Z,22.16
2018-07-02T12:58:27.324Z,22.13
2018-07-02T13:01:01.736Z,23.65
2018-07-02T13:03:36.212Z,22.41
2018-07-02T13:06:10.479Z,22.55
2018-07-02T13:08:44.865Z,21.34
2018-07-02T13:11:19.267Z,22.47
2018-07-02T13:13:53.600Z,21.65
2018-07-02T13:16:28.057Z,21.30
2018-07-02T13:19:02.623Z,21.40
2018-07-02T13:21:37.536Z,21.89
2018-07-02T13:24:12.576Z,21.23
2018-07-02T13:26:47.134Z,21.12
2018-07-02T13:29:21.590Z,20.40
2018-07-02T13:31:56.097Z,21.11
2018-07-02T13:34:30.612Z,20.56
2018-07-02T13:37:05.145Z,20.60
2018-07-02T13:39:39.437Z,20.38
2018-07-02T13:42:13.924Z,22.37
2018-07-02T13:44:48.481Z,20.85
2018-07-02T13:47:23.029Z,21.29
2018-07-02T13:49:57.656Z,21.60
2018-07-02T13:52:32.230Z,21.47
2018-07-02T13:55:06.916Z,19.93
2018-07-02T13:57:41.553Z,20.18
2018-07-02T14:00:15.968Z,21.76
2018-07-02T14:02:50.350Z,20.75
2018-07-02T14:05:24.855Z,20.79
2018-07-02T14:07:59.457Z,19.36
2018-07-02T14:10:33.882Z,20.36
2018-07-02T14:13:08.368Z,19.65
2018-07-02T14:15:42.889Z,19.29
2018-07-02T14:18:17.271Z,19.46
2018-07-02T14:20:51.797Z,20.32
2018-07-02T14:23:26.196Z,19.88
2018-07-02T14:26:00.608Z,19.11
2018-07-02T14:28:35.194Z,20.45
2018-07-02T14:31:09.624Z,18.26
2018-07-02T14:33:44.187Z,18.04
2018-07-02T14:36:18.562Z,17.09
2018-07-02T14:38:53.192Z,16.63
2018-07-02T14:41:27.757Z,16.21
2018-07-02T14:44:02.215Z,16.42
2018-07-02T14:46:36.608Z,15.80
2018-07-02T14:49:10.924Z,15.21
2018-07-02T14:51:45.428Z,15.02
2018-07-02T14:54:20.052Z,16.33
2018-07-02T14:56:54.506Z,15.70
2018-07-02T14:59:28.932Z,16.58
2018-07-02T15:02:03.325Z,16.84
2018-07-02T15:04:37.653Z,15.63
2018-07-02T15:07:12.144Z,16.45
2018-07-02T15:09:46.666Z,16.87
2018-07-02T15:12:21.140Z,17.14
2018-07-02T15:14:55.701Z,16.25
2018-07-02T15:17:30.158Z,16.96
2018-07-02T15:20:04.747Z,17.91
2018-07-02T15:22:39.337Z,18.61
2018-07-02T15:25:13.942Z,18.09
2018-07-02T15:27:48.616Z,19.06
2018-07-02T15:30:23.174Z,20.21
2018-07-02T15:32:57.824Z,20.50
2018-07-02T15:35:32.575Z,21.36
2018-07-02T15:38:07.119Z,21.21
2018-07-02T15:40:41.692Z,21.97
2018-07-02T15:43:16.239Z,22.39
2018-07-02T15:45:50.688Z,21.95
2018-07-02T15:48:25.149Z,22.23
2018-07-02T15:50:59.798Z,22.44
2018-07-02T15:53:34.344Z,22.43
2018-07-02T15:56:08.848Z,22.59
2018-07-02T15:58:43.399Z,22.27
2018-07-02T16:01:17.967Z,23.69
2018-07-02T16:03:52.489Z,22.82
2018-07-02T16:06:26.852Z,23.22
2018-07-02T16:09:01.482Z,22.93
2018-07-02T16:11:36.044Z,23.38
2018-07-02T16:14:10.481Z,22.91
2018-07-02T16:16:44.934Z,23.27
2018-07-02T16:19:19.558Z,24.07
2018-07-02T16:21:54.232Z,23.39
2018-07-02T16:24:28.717Z,23.87
2018-07-02T16:27:03.257Z,24.04
2018-07-02T16:29:37.822Z,23.96
2018-07-02T16:32:12.336Z,24.52
2018-07-02T16:34:46.884Z,24.81
2018-07-02T16:37:21.530Z,24.19
2018-07-02T16:39:56.097Z,24.74
2018-07-02T16:42:30.960Z,24.29
2018-07-02T16:45:05.704Z,25.03
2018-07-02T16:47:40.221Z,25.11
2018-07-02T16:50:14.868Z,25.57
2018-07-02T16:52:49.472Z,24.95
2018-07-02T16:55:24.062Z,25.50
2018-07-02T16:57:58.484Z,25.09
2018-07-02T17:00:32.988Z,25.57
2018-07-02T17:03:07.654Z,25.00
2018-07-02T17:05:42.195Z,24.94
2018-07-02T17:08:16.725Z,24.88
2018-07-02T17:10:51.162Z,26.17
2018-07-02T17:13:26.029Z,25.51
2018-07-02T17:16:00.495Z,25.40
2018-07-02T17:18:35.066Z,25.79
2018-07-02T17:21:09.530Z,26.05
2018-07-02T17:23:43.970Z,25.62
2018-07-02T17:26:18.352Z,26.03
2018-07-02T17:28:52.962Z,25.67
2018-07-02T17:31:27.420Z,25.83
2018-07-02T17:34:01.801Z,26.14
2018-07-02T17:36:36.443Z,26.37
2018-07-02T17:39:11.764Z,26.10
2018-07-02T17:41:46.153Z,26.05
2018-07-02T17:44:20.539Z,26.44
2018-07-02T17:46:55.105Z,26.17
2018-07-02T17:49:29.592Z,26.16
2018-07-02T17:52:04.250Z,26.08
2018-07-02T17:54:38.717Z,26.61
2018-07-02T17:57:13.109Z,26.23
2018-07-02T17:59:47.581Z,26.31
2018-07-02T18:02:23.620Z,26.35
2018-07-02T18:04:58.056Z,26.47
2018-07-02T18:07:32.494Z,26.39
2018-07-02T18:10:07.245Z,26.92
2018-07-02T18:12:41.698Z,26.86
2018-07-02T18:15:16.054Z,27.13
2018-07-02T18:17:50.792Z,27.45
2018-07-02T18:20:25.180Z,28.19
2018-07-02T18:22:59.528Z,28.14
2018-07-02T18:25:33.953Z,28.33
2018-07-02T18:28:08.362Z,27.91
2018-07-02T18:30:42.989Z,28.43
2018-07-02T18:33:17.617Z,28.26
2018-07-02T18:35:52.107Z,28.06
2018-07-02T18:38:26.768Z,28.49
2018-07-02T18:41:01.349Z,28.82
2018-07-02T18:43:36.238Z,28.82
2018-07-02T18:46:10.727Z,28.93
2018-07-02T18:48:45.056Z,28.70
2018-07-02T18:51:19.414Z,28.86
2018-07-02T18:53:53.789Z,29.13
2018-07-02T18:56:28.533Z,29.42
2018-07-02T18:59:03.004Z,29.02
2018-07-02T19:01:37.356Z,28.89
2018-07-02T19:04:11.848Z,29.04
2018-07-02T19:06:46.349Z,29.27
2018-07-02T19:09:21.064Z,30.18
2018-07-02T19:11:55.568Z,29.68
2018-07-02T19:14:30.000Z,30.07
2018-07-02T19:17:04.511Z,29.74
2018-07-02T19:19:38.978Z,30.47
2018-07-02T19:22:13.441Z,30.51
2018-07-02T19:24:48.099Z,30.79
2018-07-02T19:27:22.609Z,30.23
2018-07-02T19:29:57.136Z,30.96
2018-07-02T19:32:31.672Z,30.67
2018-07-02T19:35:06.130Z,31.28
2018-07-02T19:37:40.717Z,30.97
2018-07-02T19:40:15.188Z,31.30
2018-07-02T19:42:49.792Z,31.77
2018-07-02T19:45:24.241Z,31.72
2018-07-02T19:47:58.625Z,31.63
2018-07-02T19:50:32.956Z,31.67
2018-07-02T19:53:07.477Z,32.16
2018-07-02T19:55:41.829Z,32.17
2018-07-02T19:58:16.194Z,32.26
2018-07-02T20:00:50.672Z,31.81
2018-07-02T20:03:25.105Z,32.14
2018-07-02T20:05:59.562Z,31.64
2018-07-02T20:08:34.125Z,31.92
2018-07-02T20:11:08.521Z,32.21
2018-07-02T20:13:43.129Z,32.63
2018-07-02T20:16:17.658Z,32.39
2018-07-02T20:18:52.258Z,32.52
2018-07-02T20:21:26.585Z,31.89
2018-07-02T20:24:01.134Z,31.67
2018-07-02T20:26:35.648Z,32.19
2018-07-02T20:29:10.069Z,31.95
2018-07-02T20:31:44.736Z,31.66
2018-07-02T20:34:19.201Z,31.54
2018-07-02T20:36:53.748Z,31.64
2018-07-02T20:39:28.216Z,31.47
2018-07-02T20:42:02.793Z,31.24
2018-07-02T20:44:37.213Z,32.14
2018-07-02T20:47:12.231Z,31.50
2018-07-02T20:49:46.730Z,31.50
2018-07-02T20:52:21.080Z,31.30
2018-07-02T20:54:55.525Z,31.32
2018-07-02T20:57:29.910Z,30.54
2018-07-02T21:00:05.609Z,30.64
2018-07-02T21:02:39.966Z,30.42
2018-07-02T21:05:14.436Z,30.67
2018-07-02T21:07:48.784Z,30.27
2018-07-02T21:10:23.493Z,30.98
2018-07-02T21:12:58.103Z,30.37
2018-07-02T21:15:32.525Z,30.58
2018-07-02T21:18:06.996Z,30.19
2018-07-02T21:20:41.567Z,30.70
2018-07-02T21:23:16.123Z,31.08
2018-07-02T21:25:50.478Z,30.86
2018-07-02T21:28:25.154Z,30.44
2018-07-02T21:30:59.573Z,30.32
2018-07-02T21:33:34.149Z,31.02
2018-07-02T21:36:08.704Z,30.98
2018-07-02T21:38:43.310Z,30.89
2018-07-02T21:41:17.768Z,31.00
2018-07-02T21:43:52.476Z,31.12
2018-07-02T21:46:27.089Z,30.72
2018-07-02T21:49:01.682Z,30.89
2018-07-02T21:51:36.149Z,31.04
2018-07-02T21:54:10.748Z,31.04
2018-07-02T21:56:45.409Z,31.11
2018-07-02T21:59:19.854Z,31.32
2018-07-02T22:01:54.368Z,31.35
2018-07-02T22:04:28.723Z,31.67
2018-07-02T22:07:03.256Z,31.32
2018-07-02T22:09:37.800Z,31.51
2018-07-02T22:12:12.276Z,31.52
2018-07-02T22:14:46.913Z,31.48
2018-07-02T22:17:21.776Z,32.23
2018-07-02T22:19:56.448Z,32.06
2018-07-02T22:22:31.106Z,32.35
2018-07-02T22:25:05.571Z,32.05
2018-07-02T22:27:40.046Z,31.72
2018-07-02T22:30:14.598Z,32.70
2018-07-02T22:32:49.048Z,33.99
2018-07-02T22:35:23.658Z,33.27
2018-07-02T22:37:58.090Z,33.52
2018-07-02T22:40:32.570Z,33.04
2018-07-02T22:43:07.001Z,33.37
2018-07-02T22:45:41.477Z,33.05
2018-07-02T22:48:16.147Z,33.61
2018-07-02T22:50:51.628Z,33.41
2018-07-02T22:53:26.218Z,34.08
2018-07-02T22:56:03.382Z,33.66
2018-07-02T22:58:37.911Z,33.24
2018-07-02T23:01:12.465Z,33.16
2018-07-02T23:03:46.966Z,33.72
2018-07-02T23:06:21.644Z,33.37
2018-07-02T23:08:56.292Z,33.34
2018-07-02T23:11:30.729Z,33.16
2018-07-02T23:14:05.221Z,33.57
2018-07-02T23:16:39.723Z,33.26
2018-07-02T23:19:14.290Z,33.01
2018-07-02T23:21:48.768Z,33.98
2018-07-02T23:24:23.422Z,33.70
2018-07-02T23:26:58.045Z,33.79
2018-07-02T23:29:32.518Z,34.13
2018-07-02T23:32:07.044Z,34.78
2018-07-02T23:34:41.770Z,33.28
2018-07-02T23:37:16.337Z,33.97
2018-07-02T23:39:50.878Z,33.94
2018-07-02T23:42:25.280Z,34.44
2018-07-02T23:44:59.799Z,34.05
2018-07-02T23:47:34.216Z,33.74
2018-07-02T23:50:08.626Z,35.64
2018-07-02T23:52:43.254Z,34.96
2018-07-02T23:55:17.834Z,35.16
2018-07-02T23:57:52.336Z,34.61
